sensor_id;sensor_type;location;lat;lon;timestamp;P1;durP1;ratioP1;P2;durP2;ratioP2
48588;SDS011;34369;51.174;6.738;2022-12-18T00:01:32;57.23;;;52.97;;
48588;SDS011;34369;51.174;6.738;2022-12-18T00:04:07;59.30;;;55.30;;
48588;SDS011;34369;51.174;6.738;2022-12-18T00:06:46;56.50;;;52.63;;
48588;SDS011;34369;51.174;6.738;2022-12-18T00:09:19;58.93;;;54.93;;
48588;SDS011;34369;51.174;6.738;2022-12-18T00:11:53;59.60;;;55.40;;
48588;SDS011;34369;51.174;6.738;2022-12-18T00:14:25;60.70;;;56.40;;
48588;SDS011;34369;51.174;6.738;2022-12-18T00:16:59;57.90;;;53.23;;
48588;SDS011;34369;51.174;6.738;2022-12-18T00:19:31;58.53;;;54.00;;
48588;SDS011;34369;51.174;6.738;2022-12-18T00:22:04;58.47;;;54.33;;
48588;SDS011;34369;51.174;6.738;2022-12-18T00:24:37;58.30;;;54.00;;
48588;SDS011;34369;51.174;6.738;2022-12-18T00:27:11;58.43;;;54.43;;
48588;SDS011;34369;51.174;6.738;2022-12-18T00:29:43;61.07;;;56.40;;
48588;SDS011;34369;51.174;6.738;2022-12-18T00:32:16;58.83;;;54.37;;
48588;SDS011;34369;51.174;6.738;2022-12-18T00:34:49;59.20;;;54.90;;
48588;SDS011;34369;51.174;6.738;2022-12-18T00:37:21;58.57;;;54.13;;
48588;SDS011;34369;51.174;6.738;2022-12-18T00:39:53;56.57;;;52.73;;
48588;SDS011;34369;51.174;6.738;2022-12-18T00:42:27;58.93;;;54.33;;
48588;SDS011;34369;51.174;6.738;2022-12-18T00:45:18;59.73;;;55.10;;
48588;SDS011;34369;51.174;6.738;2022-12-18T00:47:53;61.87;;;57.20;;
48588;SDS011;34369;51.174;6.738;2022-12-18T00:50:26;60.33;;;56.20;;
48588;SDS011;34369;51.174;6.738;2022-12-18T00:52:58;59.17;;;54.70;;
48588;SDS011;34369;51.174;6.738;2022-12-18T00:55:31;57.90;;;53.43;;
48588;SDS011;34369;51.174;6.738;2022-12-18T00:58:05;59.43;;;55.00;;
48588;SDS011;34369;51.174;6.738;2022-12-18T01:00:39;60.70;;;56.57;;
48588;SDS011;34369;51.174;6.738;2022-12-18T01:03:12;60.77;;;56.23;;
48588;SDS011;34369;51.174;6.738;2022-12-18T01:05:45;59.97;;;55.73;;
48588;SDS011;34369;51.174;6.738;2022-12-18T01:08:18;58.47;;;54.20;;
48588;SDS011;34369;51.174;6.738;2022-12-18T01:10:50;60.97;;;56.57;;
48588;SDS011;34369;51.174;6.738;2022-12-18T01:13:24;62.40;;;57.93;;
48588;SDS011;34369;51.174;6.738;2022-12-18T01:15:56;61.77;;;57.50;;
48588;SDS011;34369;51.174;6.738;2022-12-18T01:18:29;57.90;;;53.80;;
48588;SDS011;34369;51.174;6.738;2022-12-18T01:21:05;64.37;;;59.57;;
48588;SDS011;34369;51.174;6.738;2022-12-18T01:23:38;59.53;;;55.33;;
48588;SDS011;34369;51.174;6.738;2022-12-18T01:26:15;59.70;;;55.10;;
48588;SDS011;34369;51.174;6.738;2022-12-18T01:28:49;59.33;;;54.80;;
48588;SDS011;34369;51.174;6.738;2022-12-18T01:31:22;59.37;;;55.33;;
48588;SDS011;34369;51.174;6.738;2022-12-18T01:33:56;60.97;;;56.83;;
48588;SDS011;34369;51.174;6.738;2022-12-18T01:36:30;58.60;;;54.30;;
48588;SDS011;34369;51.174;6.738;2022-12-18T01:39:06;62.10;;;57.55;;
48588;SDS011;34369;51.174;6.738;2022-12-18T01:41:41;57.20;;;52.53;;
48588;SDS011;34369;51.174;6.738;2022-12-18T01:47:36;59.20;;;55.00;;
48588;SDS011;34369;51.174;6.738;2022-12-18T01:50:13;58.17;;;54.30;;
48588;SDS011;34369;51.174;6.738;2022-12-18T01:52:48;64.33;;;59.97;;
48588;SDS011;34369;51.174;6.738;2022-12-18T01:55:24;58.90;;;55.03;;
48588;SDS011;34369;51.174;6.738;2022-12-18T01:57:59;59.72;;;55.45;;
48588;SDS011;34369;51.174;6.738;2022-12-18T02:00:34;59.57;;;55.27;;
48588;SDS011;34369;51.174;6.738;2022-12-18T02:03:07;59.20;;;55.00;;
48588;SDS011;34369;51.174;6.738;2022-12-18T02:05:40;59.70;;;55.17;;
48588;SDS011;34369;51.174;6.738;2022-12-18T02:08:20;62.57;;;57.93;;
48588;SDS011;34369;51.174;6.738;2022-12-18T02:11:00;59.40;;;55.47;;
48588;SDS011;34369;51.174;6.738;2022-12-18T02:13:41;61.77;;;57.33;;
48588;SDS011;34369;51.174;6.738;2022-12-18T02:16:29;59.92;;;55.72;;
48588;SDS011;34369;51.174;6.738;2022-12-18T02:19:11;61.40;;;57.23;;
48588;SDS011;34369;51.174;6.738;2022-12-18T02:22:01;58.37;;;53.97;;
48588;SDS011;34369;51.174;6.738;2022-12-18T02:24:59;61.43;;;57.30;;
48588;SDS011;34369;51.174;6.738;2022-12-18T02:27:51;58.67;;;54.53;;
48588;SDS011;34369;51.174;6.738;2022-12-18T02:30:26;62.25;;;57.85;;
48588;SDS011;34369;51.174;6.738;2022-12-18T02:33:02;58.75;;;54.45;;
48588;SDS011;34369;51.174;6.738;2022-12-18T02:35:38;58.50;;;54.60;;
48588;SDS011;34369;51.174;6.738;2022-12-18T02:38:12;58.57;;;54.73;;
48588;SDS011;34369;51.174;6.738;2022-12-18T02:40:46;61.13;;;57.07;;
48588;SDS011;34369;51.174;6.738;2022-12-18T02:43:22;60.60;;;56.17;;
48588;SDS011;34369;51.174;6.738;2022-12-18T02:45:56;58.83;;;54.57;;
48588;SDS011;34369;51.174;6.738;2022-12-18T02:48:32;58.20;;;54.30;;
48588;SDS011;34369;51.174;6.738;2022-12-18T02:51:08;60.37;;;56.20;;
48588;SDS011;34369;51.174;6.738;2022-12-18T02:53:49;59.30;;;55.03;;
48588;SDS011;34369;51.174;6.738;2022-12-18T02:56:28;56.73;;;52.87;;
48588;SDS011;34369;51.174;6.738;2022-12-18T02:59:08;55.43;;;51.50;;
48588;SDS011;34369;51.174;6.738;2022-12-18T03:01:46;60.13;;;56.00;;
48588;SDS011;34369;51.174;6.738;2022-12-18T03:04:26;58.17;;;54.30;;
48588;SDS011;34369;51.174;6.738;2022-12-18T03:07:04;61.50;;;57.27;;
48588;SDS011;34369;51.174;6.738;2022-12-18T03:09:43;62.73;;;58.07;;
48588;SDS011;34369;51.174;6.738;2022-12-18T03:12:21;61.27;;;57.07;;
48588;SDS011;34369;51.174;6.738;2022-12-18T03:15:03;62.20;;;57.83;;
48588;SDS011;34369;51.174;6.738;2022-12-18T03:17:40;57.20;;;52.93;;
48588;SDS011;34369;51.174;6.738;2022-12-18T03:20:18;60.37;;;55.87;;
48588;SDS011;34369;51.174;6.738;2022-12-18T03:22:53;62.63;;;57.87;;
48588;SDS011;34369;51.174;6.738;2022-12-18T03:25:32;58.57;;;54.30;;
48588;SDS011;34369;51.174;6.738;2022-12-18T03:28:07;61.13;;;56.77;;
48588;SDS011;34369;51.174;6.738;2022-12-18T03:30:45;59.43;;;54.87;;
48588;SDS011;34369;51.174;6.738;2022-12-18T03:33:24;59.17;;;54.50;;
48588;SDS011;34369;51.174;6.738;2022-12-18T03:36:01;60.73;;;56.27;;
48588;SDS011;34369;51.174;6.738;2022-12-18T03:38:33;62.47;;;57.80;;
48588;SDS011;34369;51.174;6.738;2022-12-18T03:41:09;60.63;;;56.37;;
48588;SDS011;34369;51.174;6.738;2022-12-18T03:43:49;60.50;;;56.27;;
48588;SDS011;34369;51.174;6.738;2022-12-18T03:46:30;62.50;;;58.57;;
48588;SDS011;34369;51.174;6.738;2022-12-18T03:49:12;60.87;;;56.77;;
48588;SDS011;34369;51.174;6.738;2022-12-18T03:51:57;57.17;;;53.47;;
48588;SDS011;34369;51.174;6.738;2022-12-18T03:54:34;60.07;;;56.10;;
48588;SDS011;34369;51.174;6.738;2022-12-18T03:57:10;59.67;;;55.57;;
48588;SDS011;34369;51.174;6.738;2022-12-18T03:59:47;59.50;;;55.43;;
48588;SDS011;34369;51.174;6.738;2022-12-18T04:04:59;59.10;;;54.60;;
48588;SDS011;34369;51.174;6.738;2022-12-18T04:07:35;56.65;;;52.80;;
48588;SDS011;34369;51.174;6.738;2022-12-18T04:10:09;56.73;;;52.53;;
48588;SDS011;34369;51.174;6.738;2022-12-18T04:12:43;60.20;;;55.90;;
48588;SDS011;34369;51.174;6.738;2022-12-18T04:15:16;57.60;;;53.53;;
48588;SDS011;34369;51.174;6.738;2022-12-18T04:17:50;62.47;;;57.97;;
48588;SDS011;34369;51.174;6.738;2022-12-18T04:20:22;58.07;;;54.00;;
48588;SDS011;34369;51.174;6.738;2022-12-18T04:22:54;60.30;;;55.77;;
48588;SDS011;34369;51.174;6.738;2022-12-18T04:25:26;56.80;;;52.70;;
48588;SDS011;34369;51.174;6.738;2022-12-18T04:27:59;57.93;;;53.93;;
48588;SDS011;34369;51.174;6.738;2022-12-18T04:30:35;59.20;;;54.83;;
48588;SDS011;34369;51.174;6.738;2022-12-18T04:33:09;60.27;;;56.10;;
48588;SDS011;34369;51.174;6.738;2022-12-18T04:35:43;56.07;;;52.37;;
48588;SDS011;34369;51.174;6.738;2022-12-18T04:38:15;58.43;;;54.43;;
48588;SDS011;34369;51.174;6.738;2022-12-18T04:40:48;58.77;;;54.37;;
48588;SDS011;34369;51.174;6.738;2022-12-18T04:43:20;60.40;;;56.13;;
48588;SDS011;34369;51.174;6.738;2022-12-18T04:45:52;58.77;;;54.63;;
48588;SDS011;34369;51.174;6.738;2022-12-18T04:48:26;58.67;;;54.50;;
48588;SDS011;34369;51.174;6.738;2022-12-18T04:50:58;59.60;;;55.20;;
48588;SDS011;34369;51.174;6.738;2022-12-18T04:53:30;58.43;;;54.37;;
48588;SDS011;34369;51.174;6.738;2022-12-18T04:56:04;55.13;;;51.40;;
48588;SDS011;34369;51.174;6.738;2022-12-18T04:58:38;55.50;;;51.90;;
48588;SDS011;34369;51.174;6.738;2022-12-18T05:01:12;56.90;;;52.83;;
48588;SDS011;34369;51.174;6.738;2022-12-18T05:03:50;59.20;;;55.27;;
48588;SDS011;34369;51.174;6.738;2022-12-18T05:08:56;59.70;;;55.60;;
48588;SDS011;34369;51.174;6.738;2022-12-18T05:11:41;57.33;;;53.20;;
48588;SDS011;34369;51.174;6.738;2022-12-18T05:14:12;58.47;;;54.40;;
48588;SDS011;34369;51.174;6.738;2022-12-18T05:16:44;57.87;;;53.73;;
48588;SDS011;34369;51.174;6.738;2022-12-18T05:19:18;60.00;;;55.63;;
48588;SDS011;34369;51.174;6.738;2022-12-18T05:21:51;59.43;;;54.73;;
48588;SDS011;34369;51.174;6.738;2022-12-18T05:24:23;56.20;;;51.97;;
48588;SDS011;34369;51.174;6.738;2022-12-18T05:26:55;60.70;;;56.40;;
48588;SDS011;34369;51.174;6.738;2022-12-18T05:29:27;60.77;;;56.30;;
48588;SDS011;34369;51.174;6.738;2022-12-18T05:31:59;57.23;;;53.10;;
48588;SDS011;34369;51.174;6.738;2022-12-18T05:34:33;57.07;;;53.17;;
48588;SDS011;34369;51.174;6.738;2022-12-18T05:37:05;58.03;;;54.17;;
48588;SDS011;34369;51.174;6.738;2022-12-18T05:39:40;55.47;;;51.57;;
48588;SDS011;34369;51.174;6.738;2022-12-18T05:42:13;56.83;;;52.93;;
48588;SDS011;34369;51.174;6.738;2022-12-18T05:44:46;53.60;;;49.90;;
48588;SDS011;34369;51.174;6.738;2022-12-18T05:47:18;56.60;;;52.87;;
48588;SDS011;34369;51.174;6.738;2022-12-18T05:49:52;56.07;;;52.53;;
48588;SDS011;34369;51.174;6.738;2022-12-18T05:52:24;58.03;;;54.10;;
48588;SDS011;34369;51.174;6.738;2022-12-18T05:54:56;58.63;;;54.50;;
48588;SDS011;34369;51.174;6.738;2022-12-18T05:57:29;57.13;;;53.00;;
48588;SDS011;34369;51.174;6.738;2022-12-18T06:00:02;58.43;;;54.53;;
48588;SDS011;34369;51.174;6.738;2022-12-18T06:02:35;54.27;;;50.57;;
48588;SDS011;34369;51.174;6.738;2022-12-18T06:05:09;56.97;;;53.20;;
48588;SDS011;34369;51.174;6.738;2022-12-18T06:07:41;56.33;;;52.53;;
48588;SDS011;34369;51.174;6.738;2022-12-18T06:10:13;54.97;;;51.50;;
48588;SDS011;34369;51.174;6.738;2022-12-18T06:12:45;54.60;;;50.87;;
48588;SDS011;34369;51.174;6.738;2022-12-18T06:15:18;56.07;;;52.03;;
48588;SDS011;34369;51.174;6.738;2022-12-18T06:17:52;58.30;;;54.33;;
48588;SDS011;34369;51.174;6.738;2022-12-18T06:20:25;59.40;;;55.10;;
48588;SDS011;34369;51.174;6.738;2022-12-18T06:22:57;55.00;;;51.20;;
48588;SDS011;34369;51.174;6.738;2022-12-18T06:25:29;57.63;;;53.93;;
48588;SDS011;34369;51.174;6.738;2022-12-18T06:28:02;56.77;;;53.13;;
48588;SDS011;34369;51.174;6.738;2022-12-18T06:30:34;60.23;;;56.37;;
48588;SDS011;34369;51.174;6.738;2022-12-18T06:33:07;57.53;;;53.73;;
48588;SDS011;34369;51.174;6.738;2022-12-18T06:35:42;54.93;;;51.43;;
48588;SDS011;34369;51.174;6.738;2022-12-18T06:38:14;60.57;;;56.27;;
48588;SDS011;34369;51.174;6.738;2022-12-18T06:40:47;57.40;;;53.33;;
48588;SDS011;34369;51.174;6.738;2022-12-18T06:43:19;61.53;;;57.17;;
48588;SDS011;34369;51.174;6.738;2022-12-18T06:45:57;61.67;;;57.53;;
48588;SDS011;34369;51.174;6.738;2022-12-18T06:48:30;56.40;;;52.43;;
48588;SDS011;34369;51.174;6.738;2022-12-18T06:51:04;59.50;;;55.33;;
48588;SDS011;34369;51.174;6.738;2022-12-18T06:53:37;59.63;;;55.63;;
48588;SDS011;34369;51.174;6.738;2022-12-18T06:56:10;60.67;;;56.47;;
48588;SDS011;34369;51.174;6.738;2022-12-18T06:58:42;60.10;;;55.77;;
48588;SDS011;34369;51.174;6.738;2022-12-18T07:01:14;56.73;;;52.80;;
48588;SDS011;34369;51.174;6.738;2022-12-18T07:03:46;58.90;;;54.87;;
48588;SDS011;34369;51.174;6.738;2022-12-18T07:06:24;60.10;;;55.73;;
48588;SDS011;34369;51.174;6.738;2022-12-18T07:08:57;59.13;;;55.30;;
48588;SDS011;34369;51.174;6.738;2022-12-18T07:11:31;58.47;;;54.33;;
48588;SDS011;34369;51.174;6.738;2022-12-18T07:14:04;60.07;;;55.73;;
48588;SDS011;34369;51.174;6.738;2022-12-18T07:16:36;58.33;;;54.30;;
48588;SDS011;34369;51.174;6.738;2022-12-18T07:19:08;62.40;;;58.33;;
48588;SDS011;34369;51.174;6.738;2022-12-18T07:21:42;58.10;;;54.00;;
48588;SDS011;34369;51.174;6.738;2022-12-18T07:24:15;59.57;;;55.53;;
48588;SDS011;34369;51.174;6.738;2022-12-18T07:26:48;56.70;;;52.80;;
48588;SDS011;34369;51.174;6.738;2022-12-18T07:29:21;59.97;;;55.93;;
48588;SDS011;34369;51.174;6.738;2022-12-18T07:31:53;57.97;;;54.00;;
48588;SDS011;34369;51.174;6.738;2022-12-18T07:34:26;59.03;;;54.93;;
48588;SDS011;34369;51.174;6.738;2022-12-18T07:37:00;60.50;;;56.27;;
48588;SDS011;34369;51.174;6.738;2022-12-18T07:39:32;60.53;;;56.33;;
48588;SDS011;34369;51.174;6.738;2022-12-18T07:42:04;57.20;;;53.10;;
48588;SDS011;34369;51.174;6.738;2022-12-18T07:44:55;60.50;;;56.60;;
48588;SDS011;34369;51.174;6.738;2022-12-18T07:47:27;58.07;;;53.93;;
48588;SDS011;34369;51.174;6.738;2022-12-18T07:50:03;60.92;;;56.33;;
48588;SDS011;34369;51.174;6.738;2022-12-18T07:52:38;59.63;;;55.23;;
48588;SDS011;34369;51.174;6.738;2022-12-18T07:55:10;57.23;;;53.37;;
48588;SDS011;34369;51.174;6.738;2022-12-18T07:57:43;61.17;;;56.70;;
48588;SDS011;34369;51.174;6.738;2022-12-18T08:00:15;59.90;;;55.80;;
48588;SDS011;34369;51.174;6.738;2022-12-18T08:02:48;59.47;;;55.30;;
48588;SDS011;34369;51.174;6.738;2022-12-18T08:05:21;61.67;;;57.07;;
48588;SDS011;34369;51.174;6.738;2022-12-18T08:07:55;59.67;;;55.47;;
48588;SDS011;34369;51.174;6.738;2022-12-18T08:10:30;59.97;;;55.97;;
48588;SDS011;34369;51.174;6.738;2022-12-18T08:13:04;57.50;;;53.60;;
48588;SDS011;34369;51.174;6.738;2022-12-18T08:15:36;60.23;;;56.10;;
48588;SDS011;34369;51.174;6.738;2022-12-18T08:18:08;57.70;;;53.73;;
48588;SDS011;34369;51.174;6.738;2022-12-18T08:20:41;57.07;;;53.07;;
48588;SDS011;34369;51.174;6.738;2022-12-18T08:23:15;61.23;;;57.10;;
48588;SDS011;34369;51.174;6.738;2022-12-18T08:25:47;59.37;;;55.33;;
48588;SDS011;34369;51.174;6.738;2022-12-18T08:28:21;59.77;;;55.37;;
48588;SDS011;34369;51.174;6.738;2022-12-18T08:30:53;60.07;;;55.97;;
48588;SDS011;34369;51.174;6.738;2022-12-18T08:33:26;57.70;;;53.80;;
48588;SDS011;34369;51.174;6.738;2022-12-18T08:35:58;57.33;;;52.90;;
48588;SDS011;34369;51.174;6.738;2022-12-18T08:38:34;56.87;;;53.00;;
48588;SDS011;34369;51.174;6.738;2022-12-18T08:41:06;56.50;;;52.20;;
48588;SDS011;34369;51.174;6.738;2022-12-18T08:43:42;54.38;;;50.25;;
48588;SDS011;34369;51.174;6.738;2022-12-18T08:46:33;56.07;;;52.20;;
48588;SDS011;34369;51.174;6.738;2022-12-18T08:49:08;56.67;;;52.63;;
48588;SDS011;34369;51.174;6.738;2022-12-18T08:51:42;55.43;;;51.53;;
48588;SDS011;34369;51.174;6.738;2022-12-18T08:54:16;55.03;;;51.37;;
48588;SDS011;34369;51.174;6.738;2022-12-18T08:56:48;55.80;;;52.00;;
48588;SDS011;34369;51.174;6.738;2022-12-18T08:59:20;53.67;;;49.67;;
48588;SDS011;34369;51.174;6.738;2022-12-18T09:01:53;55.63;;;51.47;;
48588;SDS011;34369;51.174;6.738;2022-12-18T09:04:27;55.77;;;51.67;;
48588;SDS011;34369;51.174;6.738;2022-12-18T09:06:59;52.90;;;49.53;;
48588;SDS011;34369;51.174;6.738;2022-12-18T09:09:34;57.13;;;53.00;;
48588;SDS011;34369;51.174;6.738;2022-12-18T09:12:07;53.70;;;49.90;;
48588;SDS011;34369;51.174;6.738;2022-12-18T09:14:39;56.80;;;52.80;;
48588;SDS011;34369;51.174;6.738;2022-12-18T09:17:12;53.80;;;49.97;;
48588;SDS011;34369;51.174;6.738;2022-12-18T09:19:45;52.20;;;48.93;;
48588;SDS011;34369;51.174;6.738;2022-12-18T09:22:18;56.30;;;51.67;;
48588;SDS011;34369;51.174;6.738;2022-12-18T09:24:52;53.97;;;50.17;;
48588;SDS011;34369;51.174;6.738;2022-12-18T09:27:24;52.13;;;48.63;;
48588;SDS011;34369;51.174;6.738;2022-12-18T09:29:57;52.50;;;48.73;;
48588;SDS011;34369;51.174;6.738;2022-12-18T09:32:30;55.33;;;51.53;;
48588;SDS011;34369;51.174;6.738;2022-12-18T09:35:03;52.43;;;48.60;;
48588;SDS011;34369;51.174;6.738;2022-12-18T09:37:37;53.87;;;50.17;;
48588;SDS011;34369;51.174;6.738;2022-12-18T09:40:18;53.47;;;49.67;;
48588;SDS011;34369;51.174;6.738;2022-12-18T09:42:55;54.50;;;50.47;;
48588;SDS011;34369;51.174;6.738;2022-12-18T09:45:38;51.63;;;47.80;;
48588;SDS011;34369;51.174;6.738;2022-12-18T09:48:18;54.53;;;50.77;;
48588;SDS011;34369;51.174;6.738;2022-12-18T09:50:57;51.77;;;48.13;;
48588;SDS011;34369;51.174;6.738;2022-12-18T09:53:35;53.43;;;49.97;;
48588;SDS011;34369;51.174;6.738;2022-12-18T09:56:15;54.03;;;50.03;;
48588;SDS011;34369;51.174;6.738;2022-12-18T09:58:54;51.43;;;47.63;;
48588;SDS011;34369;51.174;6.738;2022-12-18T10:01:31;53.63;;;49.63;;
48588;SDS011;34369;51.174;6.738;2022-12-18T10:04:08;53.33;;;49.22;;
48588;SDS011;34369;51.174;6.738;2022-12-18T10:06:42;53.67;;;49.33;;
48588;SDS011;34369;51.174;6.738;2022-12-18T10:09:27;52.80;;;48.80;;
48588;SDS011;34369;51.174;6.738;2022-12-18T10:15:06;53.03;;;49.17;;
48588;SDS011;34369;51.174;6.738;2022-12-18T10:17:49;54.63;;;50.53;;
48588;SDS011;34369;51.174;6.738;2022-12-18T10:20:31;51.27;;;47.67;;
48588;SDS011;34369;51.174;6.738;2022-12-18T10:23:26;51.50;;;47.83;;
48588;SDS011;34369;51.174;6.738;2022-12-18T10:28:49;50.33;;;46.33;;
48588;SDS011;34369;51.174;6.738;2022-12-18T10:31:23;53.22;;;49.53;;
48588;SDS011;34369;51.174;6.738;2022-12-18T10:33:57;50.53;;;46.93;;
48588;SDS011;34369;51.174;6.738;2022-12-18T10:36:30;52.10;;;48.30;;
48588;SDS011;34369;51.174;6.738;2022-12-18T10:39:18;51.43;;;47.63;;
48588;SDS011;34369;51.174;6.738;2022-12-18T10:41:56;54.20;;;50.27;;
48588;SDS011;34369;51.174;6.738;2022-12-18T10:44:53;52.05;;;47.95;;
48588;SDS011;34369;51.174;6.738;2022-12-18T10:47:46;55.90;;;51.80;;
48588;SDS011;34369;51.174;6.738;2022-12-18T10:50:46;53.83;;;48.67;;
48588;SDS011;34369;51.174;6.738;2022-12-18T10:53:22;53.43;;;49.57;;
48588;SDS011;34369;51.174;6.738;2022-12-18T10:56:00;54.08;;;50.17;;
48588;SDS011;34369;51.174;6.738;2022-12-18T10:58:55;52.47;;;48.37;;
48588;SDS011;34369;51.174;6.738;2022-12-18T11:01:44;51.13;;;47.47;;
48588;SDS011;34369;51.174;6.738;2022-12-18T11:04:26;53.60;;;49.83;;
48588;SDS011;34369;51.174;6.738;2022-12-18T11:07:04;52.42;;;48.42;;
48588;SDS011;34369;51.174;6.738;2022-12-18T11:09:41;51.97;;;48.17;;
48588;SDS011;34369;51.174;6.738;2022-12-18T11:12:14;53.90;;;49.90;;
48588;SDS011;34369;51.174;6.738;2022-12-18T11:15:04;51.23;;;47.63;;
48588;SDS011;34369;51.174;6.738;2022-12-18T11:17:49;52.37;;;48.57;;
48588;SDS011;34369;51.174;6.738;2022-12-18T11:20:27;54.17;;;50.20;;
48588;SDS011;34369;51.174;6.738;2022-12-18T11:23:11;53.03;;;49.03;;
48588;SDS011;34369;51.174;6.738;2022-12-18T11:25:51;51.17;;;47.43;;
48588;SDS011;34369;51.174;6.738;2022-12-18T11:28:28;50.77;;;47.23;;
48588;SDS011;34369;51.174;6.738;2022-12-18T11:31:19;52.92;;;49.00;;
48588;SDS011;34369;51.174;6.738;2022-12-18T11:34:00;51.07;;;47.30;;
48588;SDS011;34369;51.174;6.738;2022-12-18T11:36:37;50.67;;;47.07;;
48588;SDS011;34369;51.174;6.738;2022-12-18T11:39:16;50.38;;;46.50;;
48588;SDS011;34369;51.174;6.738;2022-12-18T11:41:54;53.70;;;49.83;;
48588;SDS011;34369;51.174;6.738;2022-12-18T11:44:43;52.63;;;48.93;;
48588;SDS011;34369;51.174;6.738;2022-12-18T11:47:21;53.83;;;50.13;;
48588;SDS011;34369;51.174;6.738;2022-12-18T11:50:02;54.27;;;50.27;;
48588;SDS011;34369;51.174;6.738;2022-12-18T11:52:44;54.20;;;50.30;;
48588;SDS011;34369;51.174;6.738;2022-12-18T11:55:19;55.07;;;51.03;;
48588;SDS011;34369;51.174;6.738;2022-12-18T11:58:03;51.33;;;47.67;;
48588;SDS011;34369;51.174;6.738;2022-12-18T12:00:46;53.50;;;49.23;;
48588;SDS011;34369;51.174;6.738;2022-12-18T12:03:33;53.73;;;49.93;;
48588;SDS011;34369;51.174;6.738;2022-12-18T12:06:31;53.60;;;49.50;;
48588;SDS011;34369;51.174;6.738;2022-12-18T12:09:17;51.70;;;47.97;;
48588;SDS011;34369;51.174;6.738;2022-12-18T12:12:01;55.33;;;51.00;;
48588;SDS011;34369;51.174;6.738;2022-12-18T13:59:53;53.43;;;49.47;;
48588;SDS011;34369;51.174;6.738;2022-12-18T14:11:40;55.67;;;51.33;;
48588;SDS011;34369;51.174;6.738;2022-12-18T14:27:44;61.50;;;56.93;;
48588;SDS011;34369;51.174;6.738;2022-12-18T14:51:37;60.23;;;55.27;;
48588;SDS011;34369;51.174;6.738;2022-12-18T14:55:24;58.73;;;54.17;;
48588;SDS011;34369;51.174;6.738;2022-12-18T14:58:12;59.17;;;53.93;;
48588;SDS011;34369;51.174;6.738;2022-12-18T15:01:24;56.93;;;52.57;;
48588;SDS011;34369;51.174;6.738;2022-12-18T15:05:45;58.07;;;53.23;;
48588;SDS011;34369;51.174;6.738;2022-12-18T15:29:43;59.00;;;53.87;;
48588;SDS011;34369;51.174;6.738;2022-12-18T15:38:08;57.17;;;52.07;;
48588;SDS011;34369;51.174;6.738;2022-12-18T15:53:32;56.70;;;51.70;;
48588;SDS011;34369;51.174;6.738;2022-12-18T15:57:34;59.08;;;53.83;;
48588;SDS011;34369;51.174;6.738;2022-12-18T16:01:27;60.53;;;55.63;;
48588;SDS011;34369;51.174;6.738;2022-12-18T16:08:17;60.30;;;54.93;;
48588;SDS011;34369;51.174;6.738;2022-12-18T16:15:39;57.23;;;52.53;;
48588;SDS011;34369;51.174;6.738;2022-12-18T16:26:14;59.77;;;54.47;;
48588;SDS011;34369;51.174;6.738;2022-12-18T16:51:18;61.13;;;55.83;;
48588;SDS011;34369;51.174;6.738;2022-12-18T16:58:10;55.47;;;51.03;;
48588;SDS011;34369;51.174;6.738;2022-12-18T17:19:29;57.77;;;53.17;;
48588;SDS011;34369;51.174;6.738;2022-12-18T17:29:41;62.53;;;57.27;;
48588;SDS011;34369;51.174;6.738;2022-12-18T17:32:43;63.87;;;58.07;;
48588;SDS011;34369;51.174;6.738;2022-12-18T17:46:51;64.17;;;57.60;;
48588;SDS011;34369;51.174;6.738;2022-12-18T18:07:01;63.22;;;57.20;;
48588;SDS011;34369;51.174;6.738;2022-12-18T18:23:13;59.40;;;54.00;;
48588;SDS011;34369;51.174;6.738;2022-12-18T18:28:17;64.37;;;58.03;;
48588;SDS011;34369;51.174;6.738;2022-12-18T18:30:51;60.47;;;55.37;;
48588;SDS011;34369;51.174;6.738;2022-12-18T18:33:23;67.63;;;61.03;;
48588;SDS011;34369;51.174;6.738;2022-12-18T18:35:56;64.03;;;58.43;;
48588;SDS011;34369;51.174;6.738;2022-12-18T18:38:29;60.67;;;54.83;;
48588;SDS011;34369;51.174;6.738;2022-12-18T18:41:02;64.17;;;57.87;;
48588;SDS011;34369;51.174;6.738;2022-12-18T18:43:35;64.20;;;58.00;;
48588;SDS011;34369;51.174;6.738;2022-12-18T18:46:08;65.07;;;58.83;;
48588;SDS011;34369;51.174;6.738;2022-12-18T18:48:44;66.03;;;59.83;;
48588;SDS011;34369;51.174;6.738;2022-12-18T18:51:16;65.17;;;59.23;;
48588;SDS011;34369;51.174;6.738;2022-12-18T18:53:51;62.83;;;57.10;;
48588;SDS011;34369;51.174;6.738;2022-12-18T18:56:25;65.57;;;59.80;;
48588;SDS011;34369;51.174;6.738;2022-12-18T18:58:57;61.37;;;56.23;;
48588;SDS011;34369;51.174;6.738;2022-12-18T19:01:30;66.17;;;59.80;;
48588;SDS011;34369;51.174;6.738;2022-12-18T19:04:02;63.67;;;57.83;;
48588;SDS011;34369;51.174;6.738;2022-12-18T19:06:37;62.30;;;57.10;;
48588;SDS011;34369;51.174;6.738;2022-12-18T19:09:12;63.27;;;57.60;;
48588;SDS011;34369;51.174;6.738;2022-12-18T19:11:44;63.63;;;57.70;;
48588;SDS011;34369;51.174;6.738;2022-12-18T19:14:34;61.87;;;56.10;;
48588;SDS011;34369;51.174;6.738;2022-12-18T19:17:06;60.97;;;55.40;;
48588;SDS011;34369;51.174;6.738;2022-12-18T19:19:38;59.83;;;54.67;;
48588;SDS011;34369;51.174;6.738;2022-12-18T19:22:11;63.67;;;57.80;;
48588;SDS011;34369;51.174;6.738;2022-12-18T19:24:45;65.77;;;59.57;;
48588;SDS011;34369;51.174;6.738;2022-12-18T19:27:17;62.73;;;57.03;;
48588;SDS011;34369;51.174;6.738;2022-12-18T19:29:49;63.53;;;57.27;;
48588;SDS011;34369;51.174;6.738;2022-12-18T19:32:21;62.03;;;56.80;;
48588;SDS011;34369;51.174;6.738;2022-12-18T19:34:54;65.13;;;58.60;;
48588;SDS011;34369;51.174;6.738;2022-12-18T19:37:26;61.27;;;55.93;;
48588;SDS011;34369;51.174;6.738;2022-12-18T19:40:00;61.93;;;55.80;;
48588;SDS011;34369;51.174;6.738;2022-12-18T19:42:32;65.30;;;58.93;;
48588;SDS011;34369;51.174;6.738;2022-12-18T19:45:05;63.27;;;57.07;;
48588;SDS011;34369;51.174;6.738;2022-12-18T19:47:38;60.47;;;54.53;;
48588;SDS011;34369;51.174;6.738;2022-12-18T19:50:11;59.23;;;53.80;;
48588;SDS011;34369;51.174;6.738;2022-12-18T19:52:43;63.70;;;58.07;;
48588;SDS011;34369;51.174;6.738;2022-12-18T19:55:17;63.17;;;57.53;;
48588;SDS011;34369;51.174;6.738;2022-12-18T19:57:50;63.63;;;57.30;;
48588;SDS011;34369;51.174;6.738;2022-12-18T20:00:24;62.70;;;56.67;;
48588;SDS011;34369;51.174;6.738;2022-12-18T20:02:56;62.37;;;56.67;;
48588;SDS011;34369;51.174;6.738;2022-12-18T20:05:28;62.97;;;56.90;;
48588;SDS011;34369;51.174;6.738;2022-12-18T20:08:01;64.50;;;58.63;;
48588;SDS011;34369;51.174;6.738;2022-12-18T20:10:35;62.40;;;55.90;;
48588;SDS011;34369;51.174;6.738;2022-12-18T20:13:07;64.53;;;58.03;;
48588;SDS011;34369;51.174;6.738;2022-12-18T20:15:40;61.20;;;55.43;;
48588;SDS011;34369;51.174;6.738;2022-12-18T20:18:12;62.03;;;56.40;;
48588;SDS011;34369;51.174;6.738;2022-12-18T20:20:45;64.67;;;58.20;;
48588;SDS011;34369;51.174;6.738;2022-12-18T20:23:18;70.70;;;64.27;;
48588;SDS011;34369;51.174;6.738;2022-12-18T20:25:54;65.50;;;59.33;;
48588;SDS011;34369;51.174;6.738;2022-12-18T20:28:28;65.77;;;59.60;;
48588;SDS011;34369;51.174;6.738;2022-12-18T20:31:00;63.20;;;56.80;;
48588;SDS011;34369;51.174;6.738;2022-12-18T20:33:35;62.23;;;56.23;;
48588;SDS011;34369;51.174;6.738;2022-12-18T20:36:09;61.67;;;55.87;;